Time;durP1;ratioP1;P1;durP2;ratioP2;P2;SDS_P1;SDS_P2;PMS_P1;PMS_P2;Temp;Humidity;BMP_temperature;BMP_pressure;BME280_temperature;BME280_humidity;BME280_pressure;Samples;Min_cycle;Max_cycle;Signal;HPM_P1;HPM_P2
2023/08/12 00:00:21;;;;;;;20.92;3.05;;;16.20;99.90;;;;;;5044649;28;20512;-62
2023/08/12 00:02:49;;;;;;;15.73;2.67;;;16.30;99.90;;;;;;5048956;28;20041;-62
2023/08/12 00:05:17;;;;;;;18.67;2.75;;;16.20;99.90;;;;;;5050381;28;20041;-61
2023/08/12 00:07:45;;;;;;;11.15;2.38;;;16.20;99.90;;;;;;5046957;28;20447;-62
2023/08/12 00:10:12;;;;;;;13.70;2.80;;;16.20;99.90;;;;;;5050971;28;20044;-62
2023/08/12 00:12:41;;;;;;;11.98;2.47;;;16.10;99.90;;;;;;5048308;28;20041;-61
2023/08/12 00:15:10;;;;;;;17.55;3.35;;;16.10;99.90;;;;;;5052824;28;20048;-63
2023/08/12 00:17:41;;;;;;;17.25;2.60;;;16.10;99.90;;;;;;5048535;28;20036;-62
2023/08/12 00:20:11;;;;;;;22.42;3.28;;;16.00;99.90;;;;;;5049688;28;20079;-62
2023/08/12 00:22:39;;;;;;;21.05;3.17;;;16.00;99.90;;;;;;5050435;28;20048;-62
2023/08/12 00:25:08;;;;;;;14.75;2.40;;;16.00;99.90;;;;;;5046280;28;20056;-63
2023/08/12 00:27:37;;;;;;;13.55;2.50;;;15.90;99.90;;;;;;5049034;28;20045;-61
2023/08/12 00:30:06;;;;;;;14.30;2.90;;;15.90;99.90;;;;;;5029436;28;20316;-62
2023/08/12 00:32:33;;;;;;;22.77;3.33;;;16.00;99.90;;;;;;5032836;28;20049;-62
2023/08/12 00:35:02;;;;;;;19.45;3.30;;;16.00;99.90;;;;;;5049730;28;20496;-62
2023/08/12 00:37:30;;;;;;;17.00;3.17;;;16.00;99.90;;;;;;5049542;28;20056;-62
2023/08/12 00:39:58;;;;;;;17.38;3.00;;;16.00;99.90;;;;;;5049282;28;20293;-63
2023/08/12 00:42:26;;;;;;;20.48;3.58;;;16.00;99.90;;;;;;5044040;28;20056;-62
2023/08/12 00:44:54;;;;;;;18.40;2.97;;;16.00;99.90;;;;;;5045902;28;20041;-62
2023/08/12 00:47:21;;;;;;;21.80;2.90;;;16.10;99.90;;;;;;5046139;28;20048;-62
2023/08/12 00:49:50;;;;;;;17.02;3.22;;;16.00;99.90;;;;;;5048616;28;20479;-62
2023/08/12 00:52:19;;;;;;;15.65;2.75;;;16.00;99.90;;;;;;5048912;28;20599;-62
2023/08/12 00:54:46;;;;;;;20.55;3.50;;;16.00;99.90;;;;;;5032873;28;20060;-63
2023/08/12 00:57:14;;;;;;;12.05;2.75;;;16.00;99.90;;;;;;5042624;28;20511;-63
2023/08/12 00:59:44;;;;;;;13.05;2.75;;;16.00;99.90;;;;;;5050396;28;20041;-62
2023/08/12 01:02:13;;;;;;;23.70;3.28;;;16.00;99.90;;;;;;5046974;28;20060;-63
2023/08/12 01:04:41;;;;;;;19.23;3.22;;;16.00;99.90;;;;;;5028687;28;20037;-63
2023/08/12 01:07:09;;;;;;;21.35;3.42;;;16.00;99.90;;;;;;5046939;28;20049;-63
2023/08/12 01:09:37;;;;;;;14.38;2.65;;;16.00;99.90;;;;;;5049623;28;20033;-62
2023/08/12 01:12:12;;;;;;;22.95;2.85;;;16.00;99.90;;;;;;5048366;28;20064;-63
2023/08/12 01:14:57;;;;;;;19.73;3.20;;;16.00;99.90;;;;;;5055683;28;20041;-65
2023/08/12 01:17:28;;;;;;;12.63;2.55;;;16.00;99.90;;;;;;5044530;28;20051;-62
2023/08/12 01:19:56;;;;;;;17.42;3.15;;;16.00;99.90;;;;;;5049121;28;20044;-66
2023/08/12 01:22:27;;;;;;;12.65;2.83;;;16.00;99.90;;;;;;5049710;28;20045;-62
2023/08/12 01:24:55;;;;;;;18.65;2.97;;;15.90;99.90;;;;;;5048088;28;20044;-63
2023/08/12 01:27:23;;;;;;;18.15;3.15;;;15.90;99.90;;;;;;5046360;28;20048;-63
2023/08/12 01:29:52;;;;;;;13.27;2.38;;;15.90;99.90;;;;;;5046834;28;20049;-62
2023/08/12 01:33:00;;;;;;;15.48;2.65;;;15.80;99.90;;;;;;5044348;28;20543;-62
2023/08/12 01:35:43;;;;;;;19.88;2.53;;;15.70;99.90;;;;;;5052227;28;20523;-63
2023/08/12 01:38:11;;;;;;;13.18;2.92;;;15.70;99.90;;;;;;5049542;28;20049;-62
2023/08/12 01:40:41;;;;;;;22.63;3.25;;;15.60;99.90;;;;;;5052456;28;20473;-63
2023/08/12 01:43:09;;;;;;;17.90;2.77;;;15.60;99.90;;;;;;5051051;28;20053;-62
2023/08/12 01:45:36;;;;;;;14.02;2.75;;;15.50;99.90;;;;;;5049507;28;20476;-62
2023/08/12 01:48:05;;;;;;;17.42;3.22;;;15.60;99.90;;;;;;5050759;28;20055;-62
2023/08/12 01:50:33;;;;;;;17.70;3.47;;;15.60;99.90;;;;;;5049484;28;20041;-62
2023/08/12 01:53:00;;;;;;;17.88;3.83;;;15.60;99.90;;;;;;5034333;28;20397;-62
2023/08/12 01:55:30;;;;;;;19.00;4.47;;;15.50;99.90;;;;;;5046416;28;20049;-63
2023/08/12 01:57:57;;;;;;;20.65;4.15;;;15.60;99.90;;;;;;5051448;28;20306;-63
2023/08/12 02:00:25;;;;;;;17.20;3.75;;;15.50;99.90;;;;;;5043013;28;20041;-63
2023/08/12 02:02:52;;;;;;;26.02;4.00;;;15.50;99.90;;;;;;5050915;28;20056;-62
2023/08/12 02:05:20;;;;;;;17.05;4.00;;;15.50;99.90;;;;;;5051384;28;20519;-63
2023/08/12 02:07:50;;;;;;;17.50;4.10;;;15.50;99.90;;;;;;5051876;28;20037;-63
2023/08/12 02:10:18;;;;;;;20.13;4.88;;;15.40;99.90;;;;;;5047214;28;20040;-62
2023/08/12 02:12:46;;;;;;;18.73;4.38;;;15.40;99.90;;;;;;5051744;28;20044;-62
2023/08/12 02:15:14;;;;;;;13.68;4.47;;;15.40;99.90;;;;;;5032874;28;20052;-62
2023/08/12 02:17:43;;;;;;;19.30;5.07;;;15.30;99.90;;;;;;5049995;28;20048;-63
2023/08/12 02:20:11;;;;;;;17.55;4.90;;;15.30;99.90;;;;;;5051710;28;20041;-62
2023/08/12 02:22:39;;;;;;;21.60;5.38;;;15.30;99.90;;;;;;5046834;28;20045;-63
2023/08/12 02:25:07;;;;;;;20.70;5.10;;;15.30;99.90;;;;;;5048944;28;20037;-62
2023/08/12 02:27:34;;;;;;;18.52;5.47;;;15.20;99.90;;;;;;5051724;28;20129;-63
2023/08/12 02:30:03;;;;;;;18.88;5.15;;;15.20;99.90;;;;;;5051425;28;20045;-62
2023/08/12 02:32:31;;;;;;;16.42;5.35;;;15.20;99.90;;;;;;5051801;28;20049;-61
2023/08/12 02:34:58;;;;;;;22.77;6.03;;;15.10;99.90;;;;;;5050912;28;20417;-63
2023/08/12 02:37:26;;;;;;;18.73;5.38;;;15.10;99.90;;;;;;5050309;28;20041;-63
2023/08/12 02:39:54;;;;;;;26.10;6.18;;;15.10;99.90;;;;;;5049842;28;20044;-61
2023/08/12 02:42:21;;;;;;;16.35;4.90;;;15.10;99.90;;;;;;5050293;28;20425;-63
2023/08/12 02:44:49;;;;;;;22.33;5.35;;;15.10;99.90;;;;;;5048193;28;20052;-62
2023/08/12 02:47:16;;;;;;;23.60;4.72;;;15.00;99.90;;;;;;5050116;28;20049;-62
2023/08/12 02:49:44;;;;;;;19.92;5.72;;;15.00;99.90;;;;;;5051094;28;20401;-62
2023/08/12 02:52:12;;;;;;;20.85;4.53;;;15.00;99.90;;;;;;5046342;28;20421;-62
2023/08/12 02:54:40;;;;;;;18.98;4.40;;;14.90;99.90;;;;;;5049897;28;20044;-62
2023/08/12 02:57:07;;;;;;;17.40;3.78;;;15.00;99.90;;;;;;5050023;28;20041;-62
2023/08/12 02:59:35;;;;;;;19.20;5.32;;;15.00;99.90;;;;;;5050799;28;20036;-62
2023/08/12 03:02:03;;;;;;;18.65;5.47;;;14.90;99.90;;;;;;5050126;28;20048;-62
2023/08/12 03:04:31;;;;;;;20.42;4.60;;;14.90;99.90;;;;;;5051027;28;20049;-61
2023/08/12 03:06:59;;;;;;;23.92;4.25;;;14.90;99.90;;;;;;5039938;28;20052;-62
2023/08/12 03:09:26;;;;;;;21.67;4.18;;;14.90;99.90;;;;;;5033075;28;20045;-63
2023/08/12 03:11:54;;;;;;;16.40;4.22;;;15.00;99.90;;;;;;5050023;28;20528;-63
2023/08/12 03:14:23;;;;;;;19.02;3.83;;;15.00;99.90;;;;;;5045598;28;20041;-62
2023/08/12 03:16:50;;;;;;;17.67;4.28;;;15.00;99.90;;;;;;5049928;28;20041;-63
2023/08/12 03:19:18;;;;;;;17.23;5.32;;;15.10;99.90;;;;;;5052502;28;20049;-62
2023/08/12 03:21:46;;;;;;;19.65;4.15;;;15.10;99.90;;;;;;5048455;28;20044;-62
2023/08/12 03:24:14;;;;;;;23.48;4.40;;;15.10;99.90;;;;;;5032103;28;20068;-62
2023/08/12 03:26:41;;;;;;;19.10;4.43;;;15.20;99.90;;;;;;5041953;28;20500;-62
2023/08/12 03:29:09;;;;;;;21.58;3.92;;;15.20;99.90;;;;;;5050677;28;20492;-63
2023/08/12 03:31:40;;;;;;;15.68;4.03;;;15.20;99.90;;;;;;5049767;28;20041;-62
2023/08/12 03:34:08;;;;;;;22.23;4.90;;;15.30;99.90;;;;;;5048976;28;20041;-63
2023/08/12 03:36:35;;;;;;;19.42;3.60;;;15.30;99.90;;;;;;5050969;28;20041;-63
2023/08/12 03:39:04;;;;;;;22.95;4.88;;;15.30;99.90;;;;;;5053548;28;20056;-62
2023/08/12 03:41:31;;;;;;;15.93;3.67;;;15.30;99.90;;;;;;5035949;28;20045;-62
2023/08/12 03:44:03;;;;;;;15.30;3.58;;;15.30;99.90;;;;;;5053503;28;20053;-62
2023/08/12 03:46:32;;;;;;;20.35;4.32;;;15.30;99.90;;;;;;5053627;28;20489;-62
2023/08/12 03:49:00;;;;;;;20.80;4.15;;;15.30;99.90;;;;;;5051047;28;20044;-63
2023/08/12 03:51:29;;;;;;;19.38;3.75;;;15.30;99.90;;;;;;5054654;28;20495;-63
2023/08/12 03:53:58;;;;;;;21.17;3.60;;;15.30;99.90;;;;;;5053411;28;20056;-62
2023/08/12 03:56:27;;;;;;;18.92;4.05;;;15.40;99.90;;;;;;5054683;28;20056;-63
2023/08/12 03:58:55;;;;;;;19.65;4.53;;;15.30;99.90;;;;;;5053303;28;20041;-62
2023/08/12 04:01:23;;;;;;;18.52;4.75;;;15.30;99.90;;;;;;5051617;28;20064;-63
2023/08/12 04:03:53;;;;;;;16.83;4.30;;;15.30;99.90;;;;;;5054549;28;20049;-62
2023/08/12 04:06:20;;;;;;;21.58;4.03;;;15.30;99.90;;;;;;5053153;28;20495;-61
2023/08/12 04:08:50;;;;;;;19.45;3.20;;;15.30;99.90;;;;;;5054237;28;20053;-61
2023/08/12 04:11:18;;;;;;;23.63;3.60;;;15.20;99.90;;;;;;5036832;28;20048;-61
2023/08/12 04:13:46;;;;;;;17.75;3.70;;;15.20;99.90;;;;;;5052862;28;20040;-62
2023/08/12 04:16:14;;;;;;;15.57;3.78;;;15.10;99.90;;;;;;5054021;28;20056;-62
2023/08/12 04:18:42;;;;;;;18.92;3.47;;;15.10;99.90;;;;;;5054325;28;20405;-61
2023/08/12 04:21:10;;;;;;;22.80;4.03;;;15.10;99.90;;;;;;5051244;28;20037;-63
2023/08/12 04:23:38;;;;;;;14.90;3.47;;;15.10;99.90;;;;;;5054233;28;20052;-62
2023/08/12 04:26:06;;;;;;;26.20;4.55;;;15.00;99.90;;;;;;5052589;28;20041;-63
2023/08/12 04:28:34;;;;;;;22.70;4.55;;;15.00;99.90;;;;;;5052755;28;20424;-62
2023/08/12 04:31:07;;;;;;;18.70;3.72;;;15.00;99.90;;;;;;5052798;28;20048;-62
2023/08/12 04:33:38;;;;;;;19.08;4.13;;;15.00;99.90;;;;;;5049134;28;20547;-62
2023/08/12 04:36:06;;;;;;;17.85;3.22;;;15.00;99.90;;;;;;5052103;28;20400;-63
2023/08/12 04:38:35;;;;;;;17.13;3.97;;;15.00;99.90;;;;;;5053749;28;20396;-63
2023/08/12 04:41:06;;;;;;;22.98;4.88;;;15.00;99.90;;;;;;5042119;28;20049;-62
2023/08/12 04:43:35;;;;;;;23.23;4.40;;;15.10;99.90;;;;;;5034309;28;20048;-63
2023/08/12 04:46:04;;;;;;;14.60;3.80;;;15.00;99.90;;;;;;5050653;28;20396;-62
2023/08/12 04:48:34;;;;;;;27.20;4.57;;;15.10;99.90;;;;;;5041790;28;20045;-62
2023/08/12 04:51:02;;;;;;;23.35;4.32;;;15.10;99.90;;;;;;5033740;28;20056;-62
2023/08/12 04:53:30;;;;;;;21.58;4.22;;;15.10;99.90;;;;;;5031588;28;20582;-63
2023/08/12 04:56:01;;;;;;;17.30;3.40;;;15.20;99.90;;;;;;5031672;28;20044;-62
2023/08/12 04:58:30;;;;;;;14.53;3.43;;;15.20;99.90;;;;;;5045766;28;20526;-62
2023/08/12 05:00:58;;;;;;;18.90;3.80;;;15.20;99.90;;;;;;5048835;28;20294;-63
2023/08/12 05:03:25;;;;;;;19.13;3.75;;;15.30;99.90;;;;;;5041409;28;20488;-64
2023/08/12 05:05:53;;;;;;;22.05;4.55;;;15.30;99.90;;;;;;5045097;28;20048;-63
2023/08/12 05:08:25;;;;;;;15.38;3.53;;;15.30;99.90;;;;;;5044959;28;20386;-63
2023/08/12 05:10:54;;;;;;;14.07;3.40;;;15.40;99.90;;;;;;5036739;28;20040;-62
2023/08/12 05:13:23;;;;;;;14.68;3.20;;;15.40;99.90;;;;;;5045260;28;20048;-62
2023/08/12 05:15:51;;;;;;;19.17;3.83;;;15.40;99.90;;;;;;5043907;28;20124;-62
2023/08/12 05:18:26;;;;;;;17.85;3.58;;;15.40;99.90;;;;;;5031491;28;20057;-62
2023/08/12 05:20:54;;;;;;;16.63;3.50;;;15.40;99.90;;;;;;5043914;28;20048;-62
2023/08/12 05:23:22;;;;;;;19.15;3.78;;;15.40;99.90;;;;;;5044782;28;20104;-62
2023/08/12 05:25:50;;;;;;;19.20;3.65;;;15.50;99.90;;;;;;5044828;28;20500;-61
2023/08/12 05:28:20;;;;;;;16.20;3.17;;;15.40;99.90;;;;;;5044425;28;20036;-63
2023/08/12 05:30:51;;;;;;;16.52;3.30;;;15.40;99.90;;;;;;5041998;28;20033;-63
2023/08/12 05:33:19;;;;;;;16.10;3.70;;;15.40;99.90;;;;;;5037179;28;20041;-62
2023/08/12 05:35:50;;;;;;;14.95;3.28;;;15.50;99.90;;;;;;5039292;28;20412;-62
2023/08/12 05:38:19;;;;;;;17.02;3.20;;;15.50;99.90;;;;;;5043015;28;20045;-63
2023/08/12 05:40:47;;;;;;;22.10;4.03;;;15.40;99.90;;;;;;5045680;28;20049;-62
2023/08/12 05:43:14;;;;;;;19.30;3.47;;;15.50;99.90;;;;;;5040487;28;20053;-64
2023/08/12 05:45:42;;;;;;;22.60;3.83;;;15.50;99.90;;;;;;5045828;28;20823;-63
2023/08/12 05:48:10;;;;;;;17.65;3.95;;;15.50;99.90;;;;;;5047569;28;20043;-63
2023/08/12 05:50:38;;;;;;;23.25;3.85;;;15.50;99.90;;;;;;5045097;28;20067;-62
2023/08/12 05:53:06;;;;;;;19.13;4.05;;;15.50;99.90;;;;;;5043880;28;20096;-64
2023/08/12 05:55:34;;;;;;;17.50;3.72;;;15.50;99.90;;;;;;5046162;28;20048;-63
2023/08/12 05:58:02;;;;;;;16.25;3.63;;;15.60;99.90;;;;;;5044189;28;20507;-63
2023/08/12 06:00:30;;;;;;;15.57;3.22;;;15.60;99.90;;;;;;5046235;28;20041;-63
2023/08/12 06:02:58;;;;;;;20.02;3.55;;;15.60;99.90;;;;;;5048475;28;20041;-63
2023/08/12 06:05:26;;;;;;;15.30;3.63;;;15.60;99.90;;;;;;5045942;28;20594;-63
2023/08/12 06:07:53;;;;;;;24.30;4.10;;;15.50;99.90;;;;;;5047918;28;20136;-63
2023/08/12 06:10:21;;;;;;;19.38;3.85;;;15.50;99.90;;;;;;5048405;28;20485;-63
2023/08/12 06:12:49;;;;;;;21.02;3.78;;;15.50;99.90;;;;;;5048303;28;20045;-62
2023/08/12 06:15:17;;;;;;;13.60;3.42;;;15.50;99.90;;;;;;5044627;28;20063;-63
2023/08/12 06:17:45;;;;;;;19.55;3.80;;;15.50;99.90;;;;;;5047605;28;20045;-63
2023/08/12 06:20:13;;;;;;;19.17;3.25;;;15.50;99.90;;;;;;5041739;28;20045;-63
2023/08/12 06:22:41;;;;;;;17.30;3.78;;;15.50;99.90;;;;;;5041848;28;20052;-63
2023/08/12 06:25:09;;;;;;;21.20;4.00;;;15.50;99.90;;;;;;5043098;28;20041;-63
2023/08/12 06:27:36;;;;;;;15.38;3.72;;;15.60;99.90;;;;;;5048684;28;20635;-63
2023/08/12 06:30:06;;;;;;;10.65;3.15;;;15.60;99.90;;;;;;5043988;28;20037;-62
2023/08/12 06:32:36;;;;;;;15.30;3.97;;;15.60;99.90;;;;;;5046379;28;20050;-62
2023/08/12 06:35:05;;;;;;;22.30;3.45;;;15.60;99.90;;;;;;5044106;28;20045;-63
2023/08/12 06:37:33;;;;;;;15.27;3.30;;;15.60;99.90;;;;;;5044629;28;20471;-63
2023/08/12 06:40:00;;;;;;;12.57;3.55;;;15.60;99.90;;;;;;5044721;28;20060;-62
2023/08/12 06:42:29;;;;;;;16.65;4.03;;;15.60;99.90;;;;;;5041503;28;20048;-63
2023/08/12 06:44:59;;;;;;;23.52;4.70;;;15.50;99.90;;;;;;5042632;28;20055;-63
2023/08/12 06:47:27;;;;;;;17.25;3.55;;;15.60;99.90;;;;;;5047578;28;20545;-63
2023/08/12 06:49:55;;;;;;;26.85;4.13;;;15.60;99.90;;;;;;5047590;28;20044;-63
2023/08/12 06:52:26;;;;;;;23.75;4.35;;;15.60;99.90;;;;;;5046650;28;20515;-62
2023/08/12 06:54:53;;;;;;;16.38;4.63;;;15.60;99.90;;;;;;5030241;28;20424;-62
2023/08/12 06:57:21;;;;;;;15.23;3.78;;;15.70;99.90;;;;;;5041952;28;20363;-63
2023/08/12 06:59:49;;;;;;;13.45;3.88;;;15.80;99.90;;;;;;5040250;28;20040;-63
2023/08/12 07:02:17;;;;;;;16.80;3.60;;;15.80;99.90;;;;;;5045071;28;20048;-63
2023/08/12 07:04:45;;;;;;;18.85;3.53;;;15.90;99.90;;;;;;5035821;28;20056;-62
2023/08/12 07:07:13;;;;;;;20.02;3.63;;;16.00;99.90;;;;;;5043144;28;20064;-63
2023/08/12 07:09:41;;;;;;;14.23;3.72;;;16.00;99.90;;;;;;5048157;28;20068;-62
2023/08/12 07:12:09;;;;;;;21.27;4.95;;;16.00;99.90;;;;;;5047047;28;20041;-62
2023/08/12 07:14:37;;;;;;;22.70;3.90;;;16.00;99.90;;;;;;5047342;28;20033;-62
2023/08/12 07:17:05;;;;;;;15.65;3.38;;;16.10;99.90;;;;;;5044107;28;20040;-62
2023/08/12 07:19:33;;;;;;;15.48;3.80;;;16.20;99.90;;;;;;5052245;28;20051;-62
2023/08/12 07:22:01;;;;;;;20.60;3.17;;;16.20;99.90;;;;;;5045826;28;20055;-61
2023/08/12 07:24:29;;;;;;;16.73;3.60;;;16.30;99.90;;;;;;5043903;28;20057;-63
2023/08/12 07:26:57;;;;;;;24.08;3.78;;;16.30;99.90;;;;;;5046805;28;20044;-62
2023/08/12 07:29:24;;;;;;;21.55;3.53;;;16.30;99.90;;;;;;5041258;28;20060;-64
2023/08/12 07:31:53;;;;;;;21.35;4.45;;;16.30;99.90;;;;;;5041820;28;20048;-64
2023/08/12 07:34:21;;;;;;;24.35;4.00;;;16.40;99.90;;;;;;5040649;28;20048;-64
2023/08/12 07:36:51;;;;;;;16.58;3.53;;;16.40;99.90;;;;;;5037075;28;20041;-64
2023/08/12 07:39:19;;;;;;;13.95;2.58;;;16.40;99.90;;;;;;5050208;28;20048;-64
2023/08/12 07:41:46;;;;;;;19.90;3.85;;;16.50;99.90;;;;;;5042855;28;20041;-65
2023/08/12 07:44:14;;;;;;;13.90;4.07;;;16.50;99.90;;;;;;5046798;28;20516;-64
2023/08/12 07:46:42;;;;;;;15.52;3.45;;;16.60;99.90;;;;;;5043396;28;20037;-61
2023/08/12 07:49:11;;;;;;;22.65;3.67;;;16.60;99.90;;;;;;5047135;28;20049;-64
2023/08/12 07:51:38;;;;;;;17.65;3.17;;;16.60;99.90;;;;;;5041675;28;20040;-64
2023/08/12 07:54:06;;;;;;;25.40;4.20;;;16.60;99.90;;;;;;5046918;28;20052;-65
2023/08/12 07:56:34;;;;;;;21.85;3.40;;;16.70;99.90;;;;;;5047418;28;20373;-65
2023/08/12 07:59:03;;;;;;;18.85;3.47;;;16.70;99.90;;;;;;5047949;28;20387;-63
2023/08/12 08:01:31;;;;;;;27.23;4.15;;;16.70;99.90;;;;;;5047439;28;20063;-62
2023/08/12 08:03:58;;;;;;;18.67;4.07;;;16.70;99.90;;;;;;5043636;28;20569;-62
2023/08/12 08:06:28;;;;;;;16.10;3.20;;;16.70;99.90;;;;;;5045378;28;20507;-63
2023/08/12 08:08:56;;;;;;;15.52;3.05;;;16.70;99.90;;;;;;5040389;28;20045;-63
2023/08/12 08:11:24;;;;;;;18.27;3.15;;;16.70;99.90;;;;;;5046878;28;20045;-64
2023/08/12 08:13:54;;;;;;;16.70;3.42;;;16.70;99.90;;;;;;5045393;28;20037;-62
2023/08/12 08:16:25;;;;;;;19.58;3.25;;;16.70;99.90;;;;;;5041987;28;20049;-63
2023/08/12 08:18:53;;;;;;;16.38;4.25;;;16.80;99.90;;;;;;5045763;28;20048;-61
2023/08/12 08:21:20;;;;;;;21.98;4.05;;;16.80;99.90;;;;;;5045907;28;20056;-62
2023/08/12 08:23:48;;;;;;;16.50;3.42;;;16.80;99.90;;;;;;5048739;28;20037;-62
2023/08/12 08:26:16;;;;;;;17.45;3.72;;;16.80;99.90;;;;;;5049597;28;20045;-62
2023/08/12 08:28:44;;;;;;;20.85;3.35;;;16.80;99.90;;;;;;5048433;28;20484;-62
2023/08/12 08:31:12;;;;;;;23.00;3.28;;;16.80;99.90;;;;;;5045789;28;20396;-62
2023/08/12 08:33:40;;;;;;;12.82;2.28;;;16.90;99.90;;;;;;5046781;28;20047;-63
2023/08/12 08:36:11;;;;;;;13.20;2.72;;;16.90;99.90;;;;;;5042687;28;20056;-63
2023/08/12 08:38:39;;;;;;;15.02;3.45;;;17.00;99.90;;;;;;5054320;28;20045;-62
2023/08/12 08:41:10;;;;;;;18.25;4.13;;;17.00;99.90;;;;;;5044499;28;20052;-63
2023/08/12 08:43:43;;;;;;;16.50;2.80;;;17.10;99.90;;;;;;5047804;28;20033;-62
2023/08/12 08:46:17;;;;;;;18.83;3.60;;;17.10;99.90;;;;;;5048938;28;20040;-62
2023/08/12 08:48:48;;;;;;;15.70;2.85;;;17.20;99.90;;;;;;5048129;28;20507;-63
2023/08/12 08:51:20;;;;;;;14.00;3.00;;;17.20;99.90;;;;;;5043781;28;20049;-62
2023/08/12 08:53:49;;;;;;;15.00;3.10;;;17.30;99.90;;;;;;5049303;28;20052;-64
2023/08/12 08:56:19;;;;;;;11.35;2.40;;;17.30;99.90;;;;;;5043323;28;20499;-63
2023/08/12 08:58:48;;;;;;;;;;;17.40;99.90;;;;;;5024557;28;20515;-62
2023/08/12 09:01:22;;;;;;;15.02;2.67;;;17.50;99.90;;;;;;5031812;28;19925;-63
2023/08/12 09:03:55;;;;;;;16.35;2.22;;;17.70;99.90;;;;;;5043218;28;20056;-63
2023/08/12 09:06:29;;;;;;;11.60;2.03;;;17.80;99.90;;;;;;5028810;28;20507;-63
2023/08/12 09:08:57;;;;;;;11.10;2.67;;;18.00;99.90;;;;;;5034547;28;20049;-63
2023/08/12 09:11:25;;;;;;;7.25;1.67;;;18.20;99.90;;;;;;5044981;28;20060;-63
2023/08/12 09:13:53;;;;;;;11.98;2.15;;;18.40;99.90;;;;;;5043886;28;20044;-62
2023/08/12 09:16:21;;;;;;;10.95;2.42;;;18.60;99.90;;;;;;5042661;28;20055;-62
2023/08/12 09:18:55;;;;;;;7.50;1.90;;;18.70;99.90;;;;;;5042623;28;20581;-62
2023/08/12 09:21:23;;;;;;;15.48;2.08;;;18.80;99.90;;;;;;5038768;28;20052;-62
2023/08/12 09:23:51;;;;;;;7.80;2.15;;;18.80;99.90;;;;;;5036509;28;20047;-62
2023/08/12 09:26:20;;;;;;;14.02;1.65;;;18.90;99.90;;;;;;5038701;28;20045;-62
2023/08/12 09:28:49;;;;;;;9.40;1.85;;;18.90;99.90;;;;;;5033132;28;20044;-62
2023/08/12 09:31:27;;;;;;;8.27;1.77;;;18.90;99.90;;;;;;5039191;28;20048;-62
2023/08/12 09:34:13;;;;;;;6.28;1.80;;;19.00;99.90;;;;;;5038557;28;20049;-63
2023/08/12 09:36:41;;;;;;;11.07;1.95;;;19.20;99.90;;;;;;5045693;28;20048;-62
2023/08/12 09:39:09;;;;;;;9.73;1.60;;;19.40;99.90;;;;;;5046307;28;21015;-62
2023/08/12 09:41:38;;;;;;;6.93;1.70;;;19.60;99.90;;;;;;5038231;28;20068;-62
2023/08/12 09:44:06;;;;;;;9.40;1.77;;;19.80;99.90;;;;;;5042990;28;20049;-61
2023/08/12 09:46:34;;;;;;;11.50;2.03;;;20.00;99.90;;;;;;5047822;28;20044;-62
2023/08/12 09:49:04;;;;;;;9.20;2.03;;;20.20;99.90;;;;;;5043767;28;20040;-62
2023/08/12 09:51:40;;;;;;;8.73;1.55;;;20.20;99.90;;;;;;5046369;28;20049;-62
2023/08/12 09:54:11;;;;;;;6.82;1.60;;;20.30;99.90;;;;;;5043571;28;20040;-63
2023/08/12 09:56:46;;;;;;;7.13;1.40;;;20.30;99.90;;;;;;5034255;28;20048;-64
2023/08/12 09:59:20;;;;;;;9.13;1.55;;;20.20;99.90;;;;;;5043091;28;20048;-63
2023/08/12 10:01:50;;;;;;;9.27;1.58;;;20.10;99.90;;;;;;5039569;28;20053;-63
2023/08/12 10:04:24;;;;;;;8.82;1.52;;;19.90;99.90;;;;;;5038170;28;20510;-63
2023/08/12 10:06:53;;;;;;;8.15;1.27;;;19.80;99.90;;;;;;5039124;28;20485;-64
2023/08/12 10:09:21;;;;;;;8.52;1.48;;;19.70;99.90;;;;;;5025521;28;20056;-64
2023/08/12 10:11:50;;;;;;;8.68;1.33;;;19.60;99.90;;;;;;5040675;28;20393;-63
2023/08/12 10:14:20;;;;;;;6.57;1.20;;;19.60;99.90;;;;;;5043988;28;20048;-63
2023/08/12 10:16:49;;;;;;;15.82;1.83;;;19.60;99.90;;;;;;5043757;28;20355;-63
2023/08/12 10:19:19;;;;;;;6.45;1.15;;;19.60;99.90;;;;;;5048491;28;20041;-63
2023/08/12 10:21:49;;;;;;;6.13;1.60;;;19.60;99.90;;;;;;5046373;28;20048;-63
2023/08/12 10:24:17;;;;;;;7.45;1.30;;;19.70;99.90;;;;;;5045823;28;20056;-63
2023/08/12 10:26:45;;;;;;;8.80;1.38;;;19.70;99.90;;;;;;5043088;28;20048;-63
2023/08/12 10:29:13;;;;;;;8.18;1.15;;;19.70;99.90;;;;;;5046074;28;20041;-63
2023/08/12 10:31:44;;;;;;;8.95;2.08;;;19.70;99.90;;;;;;5045835;28;20615;-64
2023/08/12 10:34:25;;;;;;;12.32;1.60;;;19.70;99.90;;;;;;5046023;28;20056;-64
2023/08/12 10:37:00;;;;;;;14.18;1.50;;;19.80;99.90;;;;;;5045726;28;20041;-64
2023/08/12 10:39:34;;;;;;;6.20;1.65;;;19.90;99.90;;;;;;5050396;28;20514;-64
2023/08/12 10:42:02;;;;;;;8.38;1.45;;;19.90;99.90;;;;;;5047243;28;20056;-63
2023/08/12 10:44:49;;;;;;;7.38;1.10;;;19.90;99.90;;;;;;5044460;28;20602;-64
2023/08/12 10:47:17;;;;;;;11.13;1.83;;;20.00;99.90;;;;;;5048515;28;20068;-64
2023/08/12 10:49:50;;;;;;;7.55;1.15;;;19.90;99.90;;;;;;5049304;28;20045;-64
2023/08/12 10:52:30;;;;;;;2.72;1.15;;;19.90;99.90;;;;;;5046452;28;20052;-62
2023/08/12 10:55:24;;;;;;;;;;;19.80;99.90;;;;;;5045287;28;20112;-63
2023/08/12 10:57:53;;;;;;;5.57;0.77;;;19.80;99.90;;;;;;5040659;28;19936;-63
2023/08/12 11:00:28;;;;;;;6.05;0.82;;;19.40;99.90;;;;;;5047536;28;20397;-63
2023/08/12 11:02:57;;;;;;;4.43;1.35;;;19.10;99.90;;;;;;5044370;28;20047;-63
2023/08/12 11:05:35;;;;;;;8.07;1.23;;;18.90;99.90;;;;;;5047014;28;20048;-63
2023/08/12 11:08:05;;;;;;;7.10;1.77;;;18.70;99.90;;;;;;5040859;28;20057;-62
2023/08/12 11:10:35;;;;;;;4.53;1.15;;;18.70;99.90;;;;;;5045714;28;20513;-63
2023/08/12 11:13:03;;;;;;;3.22;0.65;;;18.70;99.90;;;;;;5044650;28;20056;-62
2023/08/12 11:15:34;;;;;;;2.22;0.70;;;18.70;99.90;;;;;;5047500;28;20052;-63
2023/08/12 11:18:04;;;;;;;1.50;0.30;;;18.80;99.90;;;;;;5045973;28;20041;-63
2023/08/12 11:20:33;;;;;;;0.82;0.35;;;18.80;99.90;;;;;;5047862;28;20041;-62
2023/08/12 11:23:02;;;;;;;6.35;0.70;;;18.80;99.90;;;;;;5047399;28;20053;-62
2023/08/12 11:25:31;;;;;;;2.70;0.63;;;18.90;99.90;;;;;;5047609;28;20386;-64
2023/08/12 11:28:00;;;;;;;3.22;0.57;;;18.90;99.90;;;;;;5044036;28;20055;-63
2023/08/12 11:30:28;;;;;;;2.38;0.60;;;19.10;99.90;;;;;;5045647;28;20511;-64
2023/08/12 11:33:01;;;;;;;3.78;0.60;;;19.10;99.90;;;;;;5048600;28;20045;-63
2023/08/12 11:35:29;;;;;;;3.03;0.52;;;19.20;99.90;;;;;;5042250;28;20049;-63
2023/08/12 11:37:58;;;;;;;1.63;0.40;;;19.30;99.90;;;;;;5044903;28;20045;-63
2023/08/12 11:40:27;;;;;;;3.80;0.55;;;19.40;99.90;;;;;;5040714;28;20045;-63
2023/08/12 11:42:58;;;;;;;2.53;0.43;;;19.40;99.90;;;;;;5047101;28;20053;-63
2023/08/12 11:45:27;;;;;;;2.05;0.40;;;19.40;99.90;;;;;;5047200;28;20057;-63
2023/08/12 11:47:54;;;;;;;2.65;0.70;;;19.30;99.90;;;;;;5043087;28;20476;-62
2023/08/12 11:50:26;;;;;;;4.47;0.73;;;19.30;99.90;;;;;;5045913;28;20648;-63
2023/08/12 11:52:56;;;;;;;1.88;0.70;;;19.30;99.90;;;;;;5041967;28;20048;-64
2023/08/12 11:55:24;;;;;;;6.03;1.25;;;19.40;99.90;;;;;;5044172;28;20052;-63
2023/08/12 11:57:52;;;;;;;3.10;1.05;;;19.50;99.90;;;;;;5043357;28;20045;-62
2023/08/12 12:00:20;;;;;;;2.45;0.65;;;19.60;99.90;;;;;;5050302;28;20551;-63
2023/08/12 12:02:51;;;;;;;;;;;19.80;99.90;;;;;;5048398;28;20055;-63
2023/08/12 12:05:22;;;;;;;7.85;0.85;;;20.00;99.90;;;;;;5048846;28;19931;-63
2023/08/12 12:07:52;;;;;;;3.53;0.52;;;20.20;99.90;;;;;;5050711;28;20060;-64
2023/08/12 12:10:27;;;;;;;2.47;0.57;;;20.40;99.90;;;;;;5050821;28;20056;-64
2023/08/12 12:13:02;;;;;;;4.15;0.63;;;20.60;99.90;;;;;;5045914;28;20064;-63
2023/08/12 12:15:32;;;;;;;6.22;0.90;;;20.60;99.90;;;;;;5050534;28;20045;-63
2023/08/12 12:17:59;;;;;;;3.87;0.67;;;20.70;99.90;;;;;;5050684;28;20041;-63
2023/08/12 12:20:29;;;;;;;0.93;0.55;;;20.70;99.90;;;;;;5048699;28;20045;-64
2023/08/12 12:22:57;;;;;;;2.80;0.40;;;20.70;99.90;;;;;;5049354;28;20045;-63
2023/08/12 12:25:24;;;;;;;1.98;0.60;;;20.80;99.90;;;;;;5050555;28;20041;-63
2023/08/12 12:27:54;;;;;;;1.77;0.45;;;20.90;99.90;;;;;;5048077;28;20055;-64
2023/08/12 12:30:22;;;;;;;2.03;0.60;;;21.00;99.90;;;;;;5045426;28;20033;-66
2023/08/12 12:32:52;;;;;;;2.25;0.50;;;21.10;99.90;;;;;;5048624;28;20082;-65
2023/08/12 12:35:21;;;;;;;1.48;0.50;;;21.20;99.90;;;;;;5047749;28;20045;-64
2023/08/12 12:37:48;;;;;;;1.50;0.47;;;21.40;99.90;;;;;;5042702;28;20056;-65
2023/08/12 12:40:16;;;;;;;1.52;0.47;;;21.60;99.90;;;;;;5050355;28;20064;-65
2023/08/12 12:42:44;;;;;;;1.25;0.43;;;21.70;99.90;;;;;;5047903;28;20404;-65
2023/08/12 12:45:12;;;;;;;0.98;0.38;;;21.90;99.90;;;;;;5048400;28;20042;-66
2023/08/12 12:47:39;;;;;;;4.10;0.45;;;21.90;99.90;;;;;;5049315;28;20045;-66
2023/08/12 12:50:07;;;;;;;2.28;0.28;;;22.00;99.90;;;;;;5049234;28;20412;-66